Time;durP1;ratioP1;P1;durP2;ratioP2;P2;SDS_P1;SDS_P2;PMS_P1;PMS_P2;Temp;Humidity;BMP_temperature;BMP_pressure;BME280_temperature;BME280_humidity;BME280_pressure;Samples;Min_cycle;Max_cycle;Signal;HPM_P1;HPM_P2
2023/04/09 00:01:37;;;;;;;;;;;;;;;8.95;86.60;102529.81;5035085;28;1951;-76
2023/04/09 00:04:02;;;;;;;;;;;;;;;8.97;86.98;102525.38;5033492;28;1375;-74
2023/04/09 00:06:27;;;;;;;;;;;;;;;8.98;86.64;102527.06;5025360;28;2239;-76
2023/04/09 00:08:52;;;;;;;;;;;;;;;8.95;86.70;102529.81;5015244;28;1472;-75
2023/04/09 00:11:18;;;;;;;;;;;;;;;8.95;86.64;102532.41;5040334;28;1062;-74
2023/04/09 00:13:43;;;;;;;;;;;;;;;8.97;86.85;102535.75;5043033;28;1126;-74
2023/04/09 00:16:08;;;;;;;;;;;;;;;8.99;86.73;102528.72;5044656;28;1137;-75
2023/04/09 00:18:33;;;;;;;;;;;;;;;8.97;86.59;102530.56;5027252;28;1255;-77
2023/04/09 00:20:59;;;;;;;;;;;;;;;8.96;86.35;102526.31;5041781;28;1956;-74
2023/04/09 00:23:24;;;;;;;;;;;;;;;8.93;86.67;102523.84;5037388;28;1062;-74
2023/04/09 00:25:50;;;;;;;;;;;;;;;8.91;86.40;102520.50;5026568;28;1217;-75
2023/04/09 00:28:16;;;;;;;;;;;;;;;8.91;86.57;102524.84;5038701;28;1013;-74
2023/04/09 00:30:41;;;;;;;;;;;;;;;8.91;86.76;102520.50;5033720;28;2054;-75
2023/04/09 00:33:06;;;;;;;;;;;;;;;8.91;86.99;102525.69;5038138;28;1671;-74
2023/04/09 00:35:31;;;;;;;;;;;;;;;8.89;87.11;102514.56;5030694;28;1092;-76
2023/04/09 00:37:57;;;;;;;;;;;;;;;8.86;86.72;102513.88;5022206;28;1168;-75
2023/04/09 00:40:22;;;;;;;;;;;;;;;8.82;87.26;102510.59;5041808;28;1902;-74
2023/04/09 00:42:47;;;;;;;;;;;;;;;8.81;86.73;102503.75;5040799;28;959;-75
2023/04/09 00:45:12;;;;;;;;;;;;;;;8.83;87.10;102501.94;5032446;28;1141;-74
2023/04/09 00:47:38;;;;;;;;;;;;;;;8.83;87.11;102504.53;5037012;28;1092;-75
2023/04/09 00:50:03;;;;;;;;;;;;;;;8.85;87.04;102505.28;5034154;28;1124;-74
2023/04/09 00:52:31;;;;;;;;;;;;;;;8.86;86.69;102504.38;5040629;28;1090;-77
2023/04/09 00:54:59;;;;;;;;;;;;;;;8.86;87.44;102506.13;5035451;28;1310;-75
2023/04/09 00:57:24;;;;;;;;;;;;;;;8.84;87.24;102498.44;5034107;28;1071;-74
2023/04/09 00:59:50;;;;;;;;;;;;;;;8.79;87.37;102497.81;5036428;28;1906;-76
2023/04/09 01:02:15;;;;;;;;;;;;;;;8.78;87.51;102502.16;5026581;28;1450;-75
2023/04/09 01:04:41;;;;;;;;;;;;;;;8.79;87.46;102500.41;5021172;28;1381;-74
2023/04/09 01:07:11;;;;;;;;;;;;;;;8.78;87.37;102498.72;5033321;28;1593;-75
2023/04/09 01:09:40;;;;;;;;;;;;;;;8.78;87.47;102493.56;5035978;28;1129;-75
2023/04/09 01:12:27;;;;;;;;;;;;;;;8.79;87.13;102495.22;5024661;28;1252;-75
2023/04/09 01:14:58;;;;;;;;;;;;;;;8.80;87.48;102496.91;5038084;28;995;-75
2023/04/09 01:17:26;;;;;;;;;;;;;;;8.81;87.72;102493.38;5040732;28;1196;-75
2023/04/09 01:19:58;;;;;;;;;;;;;;;8.81;87.58;102487.38;5031931;28;1890;-75
2023/04/09 01:22:46;;;;;;;;;;;;;;;8.79;87.62;102495.22;5034496;28;1155;-75
2023/04/09 01:25:30;;;;;;;;;;;;;;;8.79;88.22;102484.88;5039655;28;1185;-75
2023/04/09 01:28:07;;;;;;;;;;;;;;;8.75;87.81;102472.97;5041322;28;1027;-77
2023/04/09 01:30:33;;;;;;;;;;;;;;;8.77;88.19;102489.25;5018123;28;1324;-74
2023/04/09 01:32:59;;;;;;;;;;;;;;;8.73;87.87;102482.56;5033169;28;1077;-75
2023/04/09 01:35:25;;;;;;;;;;;;;;;8.76;87.35;102485.00;5032520;28;1498;-75
2023/04/09 01:37:51;;;;;;;;;;;;;;;8.73;87.77;102475.66;5033768;28;1080;-74
2023/04/09 01:40:17;;;;;;;;;;;;;;;8.72;88.86;102483.50;5029797;28;1897;-75
2023/04/09 01:42:42;;;;;;;;;;;;;;;8.71;88.00;102481.78;5028586;28;1018;-75
2023/04/09 01:45:09;;;;;;;;;;;;;;;8.71;88.22;102482.63;5033264;28;998;-74
2023/04/09 01:47:35;;;;;;;;;;;;;;;8.72;88.22;102483.50;5032206;28;1077;-77
2023/04/09 01:50:01;;;;;;;;;;;;;;;8.71;88.39;102476.63;5035130;28;1088;-76
2023/04/09 01:52:26;;;;;;;;;;;;;;;8.67;88.92;102475.09;5033812;28;1249;-75
2023/04/09 01:54:51;;;;;;;;;;;;;;;8.68;88.06;102476.78;5030161;28;1108;-74
2023/04/09 01:57:17;;;;;;;;;;;;;;;8.69;88.81;102478.44;5037514;28;998;-75
2023/04/09 01:59:42;;;;;;;;;;;;;;;8.69;88.11;102478.44;5033105;28;1902;-74
2023/04/09 02:02:10;;;;;;;;;;;;;;;8.71;88.01;102481.78;5028443;28;1108;-75
2023/04/09 02:04:39;;;;;;;;;;;;;;;8.65;88.34;102482.09;5014413;28;1263;-76
2023/04/09 02:07:07;;;;;;;;;;;;;;;8.60;88.39;102484.03;5040055;28;978;-76
2023/04/09 02:09:35;;;;;;;;;;;;;;;8.61;87.99;102480.56;5043681;28;1063;-74
2023/04/09 02:12:02;;;;;;;;;;;;;;;8.60;88.40;102484.91;5022908;28;1294;-75
2023/04/09 02:14:28;;;;;;;;;;;;;;;8.60;88.19;102473.69;5037140;28;1104;-74
2023/04/09 02:16:53;;;;;;;;;;;;;;;8.60;88.53;102473.69;5035066;28;1001;-74
2023/04/09 02:19:18;;;;;;;;;;;;;;;8.58;88.87;102470.34;5014157;28;1204;-76
2023/04/09 02:21:43;;;;;;;;;;;;;;;8.50;88.51;102461.22;5034730;28;1959;-74
2023/04/09 02:24:09;;;;;;;;;;;;;;;8.53;88.13;102462.81;5036869;28;1406;-75
2023/04/09 02:26:34;;;;;;;;;;;;;;;8.52;88.77;102461.13;5027769;28;1243;-75
2023/04/09 02:28:59;;;;;;;;;;;;;;;8.52;89.04;102466.31;5033795;28;1089;-75
2023/04/09 02:31:25;;;;;;;;;;;;;;;8.51;88.68;102462.88;5037063;28;1093;-74
2023/04/09 02:33:50;;;;;;;;;;;;;;;8.48;89.51;102455.25;5038967;28;1022;-75
2023/04/09 02:36:15;;;;;;;;;;;;;;;8.48;89.22;102463.00;5022699;28;1535;-75
2023/04/09 02:38:41;;;;;;;;;;;;;;;8.46;89.78;102451.91;5035475;28;941;-75
2023/04/09 02:41:06;;;;;;;;;;;;;;;8.44;89.33;102463.25;5042003;28;1893;-74
2023/04/09 02:43:32;;;;;;;;;;;;;;;8.43;89.57;102457.25;5037799;28;1123;-74
2023/04/09 02:45:57;;;;;;;;;;;;;;;8.43;89.43;102446.91;5028615;28;1253;-75
2023/04/09 02:48:22;;;;;;;;;;;;;;;8.42;88.96;102454.72;5036965;28;966;-75
2023/04/09 02:50:47;;;;;;;;;;;;;;;8.43;88.78;102448.63;5030648;28;1189;-76
2023/04/09 02:53:12;;;;;;;;;;;;;;;8.41;89.74;102448.69;5023192;28;1303;-74
2023/04/09 02:55:38;;;;;;;;;;;;;;;8.41;89.38;102453.88;5037317;28;1113;-75
2023/04/09 02:58:03;;;;;;;;;;;;;;;8.42;89.67;102455.53;5037206;28;1076;-76
2023/04/09 03:00:28;;;;;;;;;;;;;;;8.42;89.59;102447.78;5035478;28;1984;-74
2023/04/09 03:02:53;;;;;;;;;;;;;;;8.42;89.03;102445.19;5037455;28;1176;-75
2023/04/09 03:05:19;;;;;;;;;;;;;;;8.41;89.44;102453.88;5038077;28;1093;-74
2023/04/09 03:07:46;;;;;;;;;;;;;;;8.42;89.57;102452.97;5032788;28;1024;-75
2023/04/09 03:10:11;;;;;;;;;;;;;;;8.44;89.25;102445.16;5038585;28;1155;-74
2023/04/09 03:12:36;;;;;;;;;;;;;;;8.45;89.33;102450.25;5034009;28;1032;-75
2023/04/09 03:15:01;;;;;;;;;;;;;;;8.43;89.88;102441.72;5028858;28;1144;-75
2023/04/09 03:17:28;;;;;;;;;;;;;;;8.42;89.76;102442.63;5038349;28;1116;-75
2023/04/09 03:19:53;;;;;;;;;;;;;;;8.40;90.60;102436.69;5027581;28;1913;-75
2023/04/09 03:22:18;;;;;;;;;;;;;;;8.39;89.99;102435.03;5034821;28;1090;-76
2023/04/09 03:24:43;;;;;;;;;;;;;;;8.41;89.95;102437.53;5034758;28;1155;-75
2023/04/09 03:27:08;;;;;;;;;;;;;;;8.39;90.30;102440.19;5035690;28;955;-75
2023/04/09 03:29:34;;;;;;;;;;;;;;;8.38;90.20;102433.34;5033250;28;1081;-75
2023/04/09 03:31:59;;;;;;;;;;;;;;;8.37;89.76;102431.69;5038653;28;1068;-76
2023/04/09 03:34:27;;;;;;;;;;;;;;;8.37;90.38;102431.69;5021994;28;1161;-75
2023/04/09 03:36:52;;;;;;;;;;;;;;;8.35;90.07;102428.28;5031928;28;1810;-74
2023/04/09 03:39:17;;;;;;;;;;;;;;;8.34;90.43;102431.78;5045698;28;2091;-76
2023/04/09 03:41:42;;;;;;;;;;;;;;;8.34;90.30;102431.78;5035518;28;2246;-76
2023/04/09 03:44:08;;;;;;;;;;;;;;;8.35;90.42;102428.28;5025447;28;1493;-75
2023/04/09 03:46:33;;;;;;;;;;;;;;;8.35;90.11;102422.28;5037208;28;1282;-74
2023/04/09 03:48:58;;;;;;;;;;;;;;;8.33;90.55;102424.94;5038933;28;998;-75
2023/04/09 03:51:23;;;;;;;;;;;;;;;8.35;89.56;102423.09;5035659;28;999;-75
2023/04/09 03:53:48;;;;;;;;;;;;;;;8.31;90.08;102415.56;5042813;28;1015;-75
2023/04/09 03:56:14;;;;;;;;;;;;;;;8.29;89.63;102423.38;5034761;28;1038;-75
2023/04/09 03:58:39;;;;;;;;;;;;;;;8.30;89.38;102417.31;5035158;28;1085;-74
2023/04/09 04:01:04;;;;;;;;;;;;;;;8.30;89.27;102414.72;5039932;28;1894;-76
2023/04/09 04:03:30;;;;;;;;;;;;;;;8.31;89.88;102418.97;5038220;28;1187;-76
2023/04/09 04:06:02;;;;;;;;;;;;;;;8.32;89.87;102418.09;5019381;28;1189;-75
2023/04/09 04:08:27;;;;;;;;;;;;;;;8.29;89.76;102415.63;5025342;28;1291;-76
2023/04/09 04:10:52;;;;;;;;;;;;;;;8.28;89.64;102411.38;5044272;28;1230;-75
2023/04/09 04:13:17;;;;;;;;;;;;;;;8.30;89.37;102409.56;5043523;28;1164;-77
2023/04/09 04:15:43;;;;;;;;;;;;;;;8.30;89.23;102413.88;5031408;28;1244;-75
2023/04/09 04:18:08;;;;;;;;;;;;;;;8.28;89.31;102406.22;5030566;28;1132;-74
2023/04/09 04:20:34;;;;;;;;;;;;;;;8.29;89.38;102418.22;5048493;28;1957;-77
2023/04/09 04:22:59;;;;;;;;;;;;;;;8.30;89.22;102414.72;5037346;28;1081;-75
2023/04/09 04:25:24;;;;;;;;;;;;;;;8.30;89.04;102414.72;5039865;28;1414;-75
2023/04/09 04:27:49;;;;;;;;;;;;;;;8.29;89.52;102423.38;5033653;28;1086;-77
2023/04/09 04:30:15;;;;;;;;;;;;;;;8.29;89.16;102420.81;5021881;28;1299;-74
2023/04/09 04:32:40;;;;;;;;;;;;;;;8.27;89.26;102422.63;5039234;28;1018;-76
2023/04/09 04:35:06;;;;;;;;;;;;;;;8.28;89.01;102426.06;5043860;28;1136;-75
2023/04/09 04:37:31;;;;;;;;;;;;;;;8.27;89.06;102420.06;5040264;28;953;-77
2023/04/09 04:39:56;;;;;;;;;;;;;;;8.27;89.02;102425.22;5034905;28;1890;-77
2023/04/09 04:42:22;;;;;;;;;;;;;;;8.27;89.33;102419.22;5034766;28;1116;-75
2023/04/09 04:44:47;;;;;;;;;;;;;;;8.28;89.26;102421.72;5044576;28;983;-75
2023/04/09 04:47:12;;;;;;;;;;;;;;;8.29;89.29;102430.31;5040817;28;962;-75
2023/04/09 04:49:37;;;;;;;;;;;;;;;8.27;88.92;102414.88;5043990;28;1091;-76
2023/04/09 04:52:03;;;;;;;;;;;;;;;8.24;89.07;102415.84;5027839;28;1337;-76
2023/04/09 04:54:28;;;;;;;;;;;;;;;8.24;89.52;102409.84;5025508;28;1222;-75
2023/04/09 04:56:53;;;;;;;;;;;;;;;8.20;89.20;102423.81;5041933;28;1392;-76
2023/04/09 04:59:19;;;;;;;;;;;;;;;8.18;89.37;102415.28;5036084;28;1033;-75
2023/04/09 05:01:44;;;;;;;;;;;;;;;8.16;89.60;102417.13;5045006;28;1898;-75
2023/04/09 05:04:09;;;;;;;;;;;;;;;8.13;89.22;102422.41;5036518;28;1213;-76
2023/04/09 05:06:35;;;;;;;;;;;;;;;8.09;89.25;102426.06;5040938;28;1145;-75
2023/04/09 05:09:00;;;;;;;;;;;;;;;8.03;89.12;102423.72;5027206;28;1293;-75
2023/04/09 05:11:25;;;;;;;;;;;;;;;7.99;89.44;102421.31;5038810;28;1076;-75
2023/04/09 05:13:51;;;;;;;;;;;;;;;7.95;89.13;102419.75;5042064;28;1002;-76
2023/04/09 05:16:17;;;;;;;;;;;;;;;7.92;88.88;102419.91;5030471;28;1094;-75
2023/04/09 05:18:42;;;;;;;;;;;;;;;7.89;89.51;102414.88;5040297;28;1225;-76
2023/04/09 05:21:07;;;;;;;;;;;;;;;7.88;89.25;102415.78;5029897;28;1902;-75
2023/04/09 05:23:33;;;;;;;;;;;;;;;7.87;89.29;102419.28;5036108;28;1140;-75
2023/04/09 05:25:58;;;;;;;;;;;;;;;7.85;89.76;102418.50;5031998;28;1087;-75
2023/04/09 05:28:23;;;;;;;;;;;;;;;7.82;89.07;102423.81;5037286;28;1233;-75
2023/04/09 05:30:48;;;;;;;;;;;;;;;7.82;89.55;102428.97;5020126;28;1181;-76
2023/04/09 05:33:13;;;;;;;;;;;;;;;7.80;89.64;102425.63;5031448;28;1069;-76
2023/04/09 05:35:39;;;;;;;;;;;;;;;7.76;89.51;102431.81;5035864;28;1120;-75
2023/04/09 05:38:05;;;;;;;;;;;;;;;7.73;89.21;102429.38;5032298;28;1235;-75
2023/04/09 05:40:30;;;;;;;;;;;;;;;7.70;88.83;102424.34;5036897;28;1898;-74
2023/04/09 05:42:55;;;;;;;;;;;;;;;7.67;89.18;102432.22;5033506;28;1191;-76
2023/04/09 05:45:21;;;;;;;;;;;;;;;7.63;88.49;102441.03;5036592;28;1180;-74
2023/04/09 05:47:46;;;;;;;;;;;;;;;7.57;88.56;102429.22;5033282;28;1001;-75
2023/04/09 05:50:11;;;;;;;;;;;;;;;7.50;88.52;102427.78;5031386;28;1212;-74
2023/04/09 05:52:36;;;;;;;;;;;;;;;7.45;88.49;102430.59;5034894;28;1564;-75
2023/04/09 05:55:02;;;;;;;;;;;;;;;7.44;89.15;102422.88;5027258;28;1295;-74
2023/04/09 05:57:29;;;;;;;;;;;;;;;7.40;88.63;102432.53;5036051;28;1005;-75
2023/04/09 05:59:54;;;;;;;;;;;;;;;7.35;88.98;102434.47;5037947;28;1938;-76
2023/04/09 06:02:19;;;;;;;;;;;;;;;7.34;88.78;102432.78;5032598;28;1187;-76
2023/04/09 06:04:45;;;;;;;;;;;;;;;7.31;88.50;102427.75;5042324;28;1248;-75
2023/04/09 06:07:10;;;;;;;;;;;;;;;7.31;88.63;102432.91;5040141;28;1129;-76
2023/04/09 06:09:35;;;;;;;;;;;;;;;7.29;89.22;102434.72;5038566;28;1186;-75
2023/04/09 06:12:01;;;;;;;;;;;;;;;7.28;88.74;102442.50;5039115;28;995;-75
2023/04/09 06:14:26;;;;;;;;;;;;;;;7.27;88.80;102436.50;5034268;28;1031;-75
2023/04/09 06:16:51;;;;;;;;;;;;;;;7.26;88.61;102440.00;5039703;28;1082;-76
2023/04/09 06:19:17;;;;;;;;;;;;;;;7.26;89.37;102440.00;5042852;28;1079;-74
2023/04/09 06:21:42;;;;;;;;;;;;;;;7.27;88.90;102436.50;5040354;28;1894;-75
2023/04/09 06:24:07;;;;;;;;;;;;;;;7.31;89.33;102442.38;5032046;28;1400;-75
2023/04/09 06:26:33;;;;;;;;;;;;;;;7.31;88.56;102440.63;5041100;28;1013;-75
2023/04/09 06:28:58;;;;;;;;;;;;;;;7.31;88.97;102443.22;5036160;28;2100;-75
2023/04/09 06:31:23;;;;;;;;;;;;;;;7.33;88.97;102443.97;5040726;28;1019;-75
2023/04/09 06:33:48;;;;;;;;;;;;;;;7.37;89.21;102432.63;5035281;28;1184;-75
2023/04/09 06:36:14;;;;;;;;;;;;;;;7.41;88.33;102447.09;5023191;28;1172;-75
2023/04/09 06:38:40;;;;;;;;;;;;;;;7.37;88.46;102445.53;5044653;28;1096;-74
2023/04/09 06:41:07;;;;;;;;;;;;;;;7.38;88.38;102448.97;5021868;28;1902;-75
2023/04/09 06:43:32;;;;;;;;;;;;;;;7.39;88.51;102451.47;5041421;28;1113;-75
2023/04/09 06:45:57;;;;;;;;;;;;;;;7.41;89.09;102454.84;5027285;28;1167;-75
2023/04/09 06:48:22;;;;;;;;;;;;;;;7.41;88.38;102454.00;5027998;28;1210;-76
2023/04/09 06:50:48;;;;;;;;;;;;;;;7.45;88.32;102456.41;5044399;28;1362;-76
2023/04/09 06:53:14;;;;;;;;;;;;;;;7.45;88.58;102451.25;5036716;28;1114;-75
2023/04/09 06:55:39;;;;;;;;;;;;;;;7.44;88.83;102452.13;5040095;28;1273;-76
2023/04/09 06:58:05;;;;;;;;;;;;;;;7.48;89.00;102454.59;5039601;28;1001;-75
2023/04/09 07:00:30;;;;;;;;;;;;;;;7.49;88.75;102453.69;5038601;28;1899;-75
2023/04/09 07:02:56;;;;;;;;;;;;;;;7.53;89.43;102452.66;5035863;28;1090;-76
2023/04/09 07:05:21;;;;;;;;;;;;;;;7.59;88.71;102457.56;5039832;28;1031;-75
2023/04/09 07:07:46;;;;;;;;;;;;;;;7.66;88.46;102459.78;5036586;28;1037;-75
2023/04/09 07:10:12;;;;;;;;;;;;;;;7.72;88.87;102461.28;5027011;28;1307;-77
2023/04/09 07:12:37;;;;;;;;;;;;;;;7.75;88.33;102462.91;5028288;28;1219;-75
2023/04/09 07:15:03;;;;;;;;;;;;;;;7.76;87.72;102457.66;5033702;28;1218;-76
2023/04/09 07:17:29;;;;;;;;;;;;;;;7.75;87.73;102463.72;5034759;28;1135;-75
2023/04/09 07:19:55;;;;;;;;;;;;;;;7.79;88.11;102464.41;5031168;28;1906;-76
2023/04/09 07:22:21;;;;;;;;;;;;;;;7.82;88.52;102465.13;5042800;28;1002;-76
2023/04/09 07:24:52;;;;;;;;;;;;;;;7.89;88.35;102466.53;5050114;28;936;-78
2023/04/09 07:27:17;;;;;;;;;;;;;;;7.95;88.10;102466.25;5044225;28;1080;-75
2023/04/09 07:29:43;;;;;;;;;;;;;;;7.97;88.15;102464.47;5045870;28;1175;-75
2023/04/09 07:32:08;;;;;;;;;;;;;;;8.04;88.30;102466.78;5038744;28;1201;-76
2023/04/09 07:34:33;;;;;;;;;;;;;;;8.07;87.77;102466.63;5036822;28;1286;-75
2023/04/09 07:36:59;;;;;;;;;;;;;;;8.09;87.91;102467.41;5041459;28;1100;-75
2023/04/09 07:39:24;;;;;;;;;;;;;;;8.15;87.91;102461.97;5037139;28;1069;-75
2023/04/09 07:41:49;;;;;;;;;;;;;;;8.20;87.54;102460.00;5037863;28;1906;-77
2023/04/09 07:44:14;;;;;;;;;;;;;;;8.26;88.01;102459.75;5039939;28;1225;-75
2023/04/09 07:46:41;;;;;;;;;;;;;;;8.31;87.58;102465.50;5035703;28;1116;-75
2023/04/09 07:49:06;;;;;;;;;;;;;;;8.35;87.69;102464.47;5040329;28;1089;-75
2023/04/09 07:51:31;;;;;;;;;;;;;;;8.41;87.54;102464.22;5028921;28;1454;-75
2023/04/09 07:53:56;;;;;;;;;;;;;;;8.46;87.46;102467.44;5039041;28;1142;-76
2023/04/09 07:56:22;;;;;;;;;;;;;;;8.52;87.63;102455.97;5011925;28;1280;-75
2023/04/09 07:58:48;;;;;;;;;;;;;;;8.62;87.89;102456.38;5028571;28;1197;-75
2023/04/09 08:01:13;;;;;;;;;;;;;;;8.68;87.25;102463.84;5025442;28;1894;-75
2023/04/09 08:03:38;;;;;;;;;;;;;;;8.68;87.08;102456.91;5037734;28;1126;-78
2023/04/09 08:06:04;;;;;;;;;;;;;;;8.67;86.39;102459.59;5039096;28;1088;-76
2023/04/09 08:08:29;;;;;;;;;;;;;;;8.67;87.14;102459.59;5037093;28;1145;-75
2023/04/09 08:10:55;;;;;;;;;;;;;;;8.70;87.25;102460.25;5045764;28;1126;-76
2023/04/09 08:13:21;;;;;;;;;;;;;;;8.76;87.04;102459.97;5044556;28;1096;-75
2023/04/09 08:15:47;;;;;;;;;;;;;;;8.82;86.99;102458.00;5039674;28;1129;-75
2023/04/09 08:18:12;;;;;;;;;;;;;;;8.88;86.58;102458.53;5034538;28;1148;-75
2023/04/09 08:20:43;;;;;;;;;;;;;;;8.92;86.82;102462.66;5035612;28;1949;-77
2023/04/09 08:23:08;;;;;;;;;;;;;;;9.05;87.27;102458.56;5034690;28;1164;-75
2023/04/09 08:25:34;;;;;;;;;;;;;;;9.16;87.13;102462.38;5037647;28;1088;-75
2023/04/09 08:27:59;;;;;;;;;;;;;;;9.21;86.31;102455.22;5032100;28;1460;-75
2023/04/09 08:30:24;;;;;;;;;;;;;;;9.22;86.15;102456.91;5040652;28;915;-77
2023/04/09 08:32:49;;;;;;;;;;;;;;;9.24;86.27;102460.25;5035552;28;1187;-77
2023/04/09 08:35:15;;;;;;;;;;;;;;;9.28;85.94;102456.59;5042249;28;1083;-75
2023/04/09 08:37:40;;;;;;;;;;;;;;;9.40;86.45;102461.13;5037846;28;1136;-77
2023/04/09 08:40:05;;;;;;;;;;;;;;;9.57;85.64;102465.47;5038282;28;1969;-75
2023/04/09 08:42:33;;;;;;;;;;;;;;;9.73;85.88;102462.94;5017359;28;1311;-75
2023/04/09 08:44:58;;;;;;;;;;;;;;;9.85;85.52;102460.53;5042961;28;1106;-76
2023/04/09 08:47:24;;;;;;;;;;;;;;;9.95;85.92;102462.66;5035435;28;989;-76
2023/04/09 08:49:50;;;;;;;;;;;;;;;10.07;84.57;102467.19;5033726;28;1150;-76
2023/04/09 08:52:17;;;;;;;;;;;;;;;10.14;85.22;102454.72;5046052;28;1041;-75
2023/04/09 08:54:43;;;;;;;;;;;;;;;10.26;84.72;102461.88;5035577;28;1065;-76
2023/04/09 08:57:08;;;;;;;;;;;;;;;10.37;84.10;102459.53;5039733;28;946;-75
2023/04/09 08:59:35;;;;;;;;;;;;;;;10.41;84.04;102448.09;5037286;28;1062;-76
2023/04/09 09:02:08;;;;;;;;;;;;;;;10.50;82.95;102447.59;5037166;28;1890;-76
2023/04/09 09:04:46;;;;;;;;;;;;;;;10.61;83.64;102442.63;5035829;28;1110;-77
2023/04/09 09:07:12;;;;;;;;;;;;;;;10.69;81.33;102443.97;5037878;28;1275;-77
2023/04/09 09:09:53;;;;;;;;;;;;;;;10.74;81.57;102436.75;5039290;28;993;-75
2023/04/09 09:12:31;;;;;;;;;;;;;;;10.81;82.14;102438.06;5019561;28;1444;-76
2023/04/09 09:14:56;;;;;;;;;;;;;;;10.90;81.86;102438.41;5039472;28;1146;-76
2023/04/09 09:17:22;;;;;;;;;;;;;;;10.96;81.79;102426.00;5034629;28;991;-77
2023/04/09 09:19:47;;;;;;;;;;;;;;;11.03;80.07;102438.53;5038585;28;1957;-76
2023/04/09 09:22:13;;;;;;;;;;;;;;;11.06;80.41;102438.34;5038086;28;990;-79
2023/04/09 09:24:47;;;;;;;;;;;;;;;11.09;77.84;102443.34;5042114;28;1013;-76
2023/04/09 09:27:29;;;;;;;;;;;;;;;11.13;79.00;102437.06;5034936;28;1136;-76
2023/04/09 09:29:55;;;;;;;;;;;;;;;11.19;79.88;102432.44;5028319;28;1361;-76
2023/04/09 09:32:22;;;;;;;;;;;;;;;11.29;79.68;102433.56;5026272;28;1468;-77
2023/04/09 09:34:56;;;;;;;;;;;;;;;11.38;79.67;102425.22;5037136;28;1143;-76
2023/04/09 09:37:27;;;;;;;;;;;;;;;11.46;79.87;102420.41;5035807;28;1093;-76
2023/04/09 09:39:53;;;;;;;;;;;;;;;11.53;78.81;102424.34;5039742;28;1898;-77
2023/04/09 09:42:18;;;;;;;;;;;;;;;11.57;78.43;102424.97;5038383;28;1081;-76
2023/04/09 09:44:43;;;;;;;;;;;;;;;11.60;77.36;102428.22;5031210;28;1009;-76
2023/04/09 09:47:10;;;;;;;;;;;;;;;11.67;76.55;102424.31;5034396;28;1105;-76
2023/04/09 09:49:36;;;;;;;;;;;;;;;11.77;78.12;102424.59;5030973;28;1093;-77
2023/04/09 09:52:02;;;;;;;;;;;;;;;11.88;77.05;102429.19;5039167;28;1063;-76
2023/04/09 09:54:33;;;;;;;;;;;;;;;11.90;75.86;102416.91;5030900;28;1354;-76
2023/04/09 09:57:03;;;;;;;;;;;;;;;11.98;76.24;102422.47;5028501;28;1102;-77
2023/04/09 09:59:30;;;;;;;;;;;;;;;12.10;77.44;102415.66;5024053;28;1296;-77
2023/04/09 10:01:58;;;;;;;;;;;;;;;12.15;74.57;102413.59;5029440;28;1995;-77
2023/04/09 10:04:26;;;;;;;;;;;;;;;12.19;76.49;102410.72;5037064;28;1093;-77
2023/04/09 10:06:52;;;;;;;;;;;;;;;12.20;74.18;102406.34;5031570;28;1136;-76
2023/04/09 10:09:20;;;;;;;;;;;;;;;12.23;74.87;102407.00;5037077;28;1078;-76
2023/04/09 10:11:47;;;;;;;;;;;;;;;12.25;75.72;102403.47;5039585;28;1044;-76
2023/04/09 10:14:12;;;;;;;;;;;;;;;12.25;74.91;102408.66;5041116;28;1307;-76
2023/04/09 10:16:38;;;;;;;;;;;;;;;12.23;74.66;102407.00;5029941;28;1104;-77
2023/04/09 10:19:03;;;;;;;;;;;;;;;12.29;74.75;102400.56;5038303;28;1221;-76
2023/04/09 10:21:36;;;;;;;;;;;;;;;12.41;75.36;102398.97;5031194;28;1894;-76
2023/04/09 10:24:04;;;;;;;;;;;;;;;12.46;75.56;102396.91;5031452;28;2014;-77
2023/04/09 10:26:32;;;;;;;;;;;;;;;12.44;72.35;102394.41;5032049;28;1018;-76
2023/04/09 10:29:13;;;;;;;;;;;;;;;12.44;73.85;102388.34;5033525;28;1107;-76
2023/04/09 10:31:45;;;;;;;;;;;;;;;12.52;70.66;102380.88;5035410;28;1002;-76
2023/04/09 10:34:13;;;;;;;;;;;;;;;12.53;71.80;102387.75;5030752;28;1151;-76
2023/04/09 10:36:42;;;;;;;;;;;;;;;12.60;70.90;102378.59;5033307;28;1071;-76
2023/04/09 10:39:10;;;;;;;;;;;;;;;12.65;70.21;102366.13;5039783;28;1052;-76
2023/04/09 10:41:36;;;;;;;;;;;;;;;12.80;69.35;102371.28;5038556;28;1961;-76
2023/04/09 10:44:05;;;;;;;;;;;;;;;12.75;66.24;102367.19;5043937;28;1259;-77
2023/04/09 10:46:33;;;;;;;;;;;;;;;12.81;69.67;102365.13;5034552;28;1224;-76
2023/04/09 10:49:08;;;;;;;;;;;;;;;12.85;67.87;102361.38;5032912;28;1045;-78
2023/04/09 10:51:34;;;;;;;;;;;;;;;12.93;67.54;102369.50;5036642;28;923;-77
2023/04/09 10:53:59;;;;;;;;;;;;;;;13.03;69.22;102365.34;5040674;28;1228;-77
2023/04/09 10:56:25;;;;;;;;;;;;;;;13.11;68.58;102363.06;5021576;28;1444;-78
2023/04/09 10:58:50;;;;;;;;;;;;;;;13.23;66.44;102362.25;5034469;28;1043;-76
2023/04/09 11:01:21;;;;;;;;;;;;;;;13.21;64.99;102358.94;5043862;28;1969;-77
2023/04/09 11:04:06;;;;;;;;;;;;;;;13.20;66.61;102361.63;5039662;28;1070;-77
2023/04/09 11:06:31;;;;;;;;;;;;;;;13.13;67.92;102356.00;5031489;28;1204;-77
2023/04/09 11:09:00;;;;;;;;;;;;;;;13.13;65.76;102344.72;5041825;28;1413;-78
2023/04/09 11:11:25;;;;;;;;;;;;;;;13.14;65.68;102347.22;5037414;28;1104;-76
2023/04/09 11:13:51;;;;;;;;;;;;;;;13.13;66.58;102345.56;5034982;28;990;-77
2023/04/09 11:16:16;;;;;;;;;;;;;;;13.12;66.43;102343.88;5036451;28;1071;-76
2023/04/09 11:18:42;;;;;;;;;;;;;;;13.19;63.71;102339.06;5038282;28;1030;-77
2023/04/09 11:21:08;;;;;;;;;;;;;;;13.28;65.70;102339.31;5035325;28;1897;-77
2023/04/09 11:23:34;;;;;;;;;;;;;;;13.32;66.73;102341.72;5027000;28;1094;-77
2023/04/09 11:26:00;;;;;;;;;;;;;;;13.33;65.76;102335.56;5034325;28;1197;-76
2023/04/09 11:28:26;;;;;;;;;;;;;;;13.39;66.12;102340.34;5021329;28;1203;-77
2023/04/09 11:30:51;;;;;;;;;;;;;;;13.42;65.67;102340.13;5032992;28;1096;-77
2023/04/09 11:33:16;;;;;;;;;;;;;;;13.40;66.07;102340.25;5021884;28;1073;-76
2023/04/09 11:35:42;;;;;;;;;;;;;;;13.37;63.42;102347.47;5039623;28;1069;-76
2023/04/09 11:38:08;;;;;;;;;;;;;;;13.34;65.17;102343.28;5032877;28;1126;-77
2023/04/09 11:40:33;;;;;;;;;;;;;;;13.31;65.06;102338.28;5034644;28;1957;-76
2023/04/09 11:42:59;;;;;;;;;;;;;;;13.34;64.60;102339.84;5043439;28;1146;-76
2023/04/09 11:45:26;;;;;;;;;;;;;;;13.39;61.67;102335.16;5039673;28;1230;-76
2023/04/09 11:47:51;;;;;;;;;;;;;;;13.42;63.76;102329.69;5034647;28;1277;-77
2023/04/09 11:50:17;;;;;;;;;;;;;;;13.38;63.68;102341.31;5028431;28;1197;-76
2023/04/09 11:52:44;;;;;;;;;;;;;;;13.40;64.09;102326.38;5036685;28;1134;-76
2023/04/09 11:55:09;;;;;;;;;;;;;;;13.49;64.81;102326.59;5022621;28;1433;-77
2023/04/09 11:57:45;;;;;;;;;;;;;;;13.60;63.24;102323.22;5033414;28;967;-76
2023/04/09 12:00:12;;;;;;;;;;;;;;;13.71;63.38;102325.91;5017512;28;1906;-76
2023/04/09 12:02:41;;;;;;;;;;;;;;;13.81;63.11;102326.91;5020132;28;1131;-77
2023/04/09 12:05:10;;;;;;;;;;;;;;;13.92;63.23;102330.53;5037501;28;1151;-78
2023/04/09 12:07:36;;;;;;;;;;;;;;;13.94;61.17;102326.03;5040902;28;1273;-77
2023/04/09 12:10:09;;;;;;;;;;;;;;;13.87;62.99;102324.78;5037148;28;1061;-76
2023/04/09 12:12:41;;;;;;;;;;;;;;;13.80;62.18;102330.44;5045502;28;1081;-78
2023/04/09 12:15:09;;;;;;;;;;;;;;;13.74;61.36;102330.91;5021142;28;1226;-77
2023/04/09 12:17:35;;;;;;;;;;;;;;;13.72;60.18;102316.31;5036536;28;1077;-76
2023/04/09 12:20:01;;;;;;;;;;;;;;;13.75;59.91;102311.69;5042738;28;1898;-75
2023/04/09 12:22:26;;;;;;;;;;;;;;;13.89;61.00;102322.94;5035904;28;1054;-76
2023/04/09 12:24:51;;;;;;;;;;;;;;;13.91;58.56;102321.88;5030391;28;1182;-77
2023/04/09 12:27:16;;;;;;;;;;;;;;;14.03;58.86;102318.38;5041672;28;1387;-76
2023/04/09 12:29:41;;;;;;;;;;;;;;;14.13;58.46;102323.75;5031703;28;1059;-77
2023/04/09 12:32:07;;;;;;;;;;;;;;;14.24;59.57;102318.59;5033279;28;1385;-77
2023/04/09 12:34:32;;;;;;;;;;;;;;;14.28;58.13;102320.03;5041052;28;1229;-77
2023/04/09 12:36:58;;;;;;;;;;;;;;;14.38;59.19;102314.13;5035858;28;1052;-77
2023/04/09 12:39:23;;;;;;;;;;;;;;;14.40;57.00;102307.88;5028122;28;1397;-77
2023/04/09 12:41:48;;;;;;;;;;;;;;;14.43;57.83;102312.00;5043114;28;1934;-76
2023/04/09 12:44:13;;;;;;;;;;;;;;;14.50;57.10;102303.63;5024119;28;1180;-76
2023/04/09 12:46:39;;;;;;;;;;;;;;;14.46;52.92;102302.19;5035227;28;1111;-76
2023/04/09 12:49:05;;;;;;;;;;;;;;;14.39;56.18;102300.13;5034526;28;1095;-76
2023/04/09 12:51:30;;;;;;;;;;;;;;;14.34;53.13;102301.31;5045510;28;1034;-75